Time;durP1;ratioP1;P1;durP2;ratioP2;P2;SDS_P1;SDS_P2;PMS_P1;PMS_P2;Temp;Humidity;BMP_temperature;BMP_pressure;BME280_temperature;BME280_humidity;BME280_pressure;Samples;Min_cycle;Max_cycle;Signal;HPM_P1;HPM_P2
2022/10/23 00:00:51;;;;;;;12.33;7.47;;;13.20;99.90;12.50;100189;;;;558309;256;24160;-82
2022/10/23 00:03:19;;;;;;;15.83;7.63;;;13.20;99.90;12.50;100194;;;;577817;248;24176;-81
2022/10/23 00:05:47;;;;;;;14.37;7.93;;;13.20;99.90;12.50;100193;;;;559494;253;24140;-81
2022/10/23 00:08:15;;;;;;;16.50;8.43;;;13.20;99.90;12.50;100203;;;;567287;253;24149;-82
2022/10/23 00:10:43;;;;;;;12.87;7.87;;;13.20;99.90;12.50;100197;;;;572406;250;24127;-80
2022/10/23 00:13:14;;;;;;;13.03;7.63;;;13.10;99.90;12.50;100191;;;;568843;251;24132;-80
2022/10/23 00:15:39;;;;;;;15.87;7.87;;;13.20;99.90;12.50;100194;;;;551246;256;24222;-81
2022/10/23 00:18:07;;;;;;;11.40;8.57;;;13.20;99.90;12.50;100206;;;;559960;255;24104;-82
2022/10/23 00:20:35;;;;;;;14.93;8.27;;;13.10;99.90;12.40;100204;;;;551694;256;24162;-80
2022/10/23 00:23:03;;;;;;;11.90;7.37;;;13.10;99.90;12.40;100201;;;;577943;248;24234;-80
2022/10/23 00:25:32;;;;;;;15.17;7.70;;;13.10;99.90;12.40;100210;;;;551345;256;24128;-80
2022/10/23 00:27:59;;;;;;;16.90;7.67;;;13.10;99.90;12.40;100213;;;;560284;252;24178;-79
2022/10/23 00:30:26;;;;;;;16.60;7.83;;;13.10;99.90;12.40;100207;;;;556982;253;24135;-81
2022/10/23 00:32:54;;;;;;;12.73;8.23;;;13.10;99.90;12.40;100212;;;;565517;251;24119;-81
2022/10/23 00:35:22;;;;;;;15.47;7.83;;;13.10;99.90;12.40;100208;;;;556950;254;24117;-81
2022/10/23 00:37:50;;;;;;;14.63;8.27;;;13.10;99.90;12.40;100208;;;;565151;251;24130;-81
2022/10/23 00:40:18;;;;;;;16.13;8.80;;;13.10;99.90;12.30;100208;;;;564911;252;24118;-83
2022/10/23 00:42:46;;;;;;;14.00;7.23;;;13.00;99.90;12.20;100213;;;;564863;252;24122;-81
2022/10/23 00:45:17;;;;;;;13.63;7.53;;;12.80;99.90;12.10;100215;;;;565050;252;24119;-82
2022/10/23 00:47:45;;;;;;;15.30;8.33;;;12.80;99.90;12.00;100226;;;;562989;251;24138;-84
2022/10/23 00:50:15;;;;;;;19.07;8.50;;;12.70;99.90;12.00;100225;;;;552732;256;24092;-82
2022/10/23 00:52:41;;;;;;;16.97;8.67;;;12.70;99.90;12.00;100215;;;;562885;251;24144;-82
2022/10/23 00:55:11;;;;;;;17.33;8.53;;;12.70;99.90;12.00;100220;;;;563071;251;24120;-82
2022/10/23 00:57:40;;;;;;;19.43;10.00;;;12.60;99.90;12.00;100216;;;;553198;255;24203;-81
2022/10/23 01:00:08;;;;;;;14.63;7.80;;;12.70;99.90;11.90;100222;;;;559090;255;24168;-80
2022/10/23 01:02:32;;;;;;;17.27;9.03;;;12.60;99.90;11.80;100212;;;;556265;254;24193;-81
2022/10/23 01:05:00;;;;;;;16.40;8.90;;;12.50;99.90;11.80;100226;;;;556274;254;24109;-80
2022/10/23 01:07:50;;;;;;;16.40;8.63;;;12.50;99.90;11.80;100227;;;;564087;252;24176;-80
2022/10/23 01:10:39;;;;;;;16.93;8.37;;;12.50;99.90;11.80;100219;;;;555842;254;24117;-81
2022/10/23 01:13:43;;;;;;;22.90;9.43;;;12.50;99.90;11.80;100219;;;;556083;254;24120;-81
2022/10/23 01:16:11;;;;;;;17.30;9.40;;;12.50;99.90;11.70;100228;;;;556485;254;24118;-83
2022/10/23 01:18:45;;;;;;;18.63;8.63;;;12.40;99.90;11.70;100222;;;;555668;253;24169;-83
2022/10/23 01:21:20;;;;;;;18.43;9.83;;;12.30;99.90;11.60;100228;;;;561565;251;24134;-81
2022/10/23 01:24:12;;;;;;;19.47;8.93;;;12.30;99.90;11.60;100227;;;;559719;256;24112;-82
2022/10/23 01:27:11;;;;;;;17.83;8.83;;;12.30;99.90;11.70;100226;;;;551867;256;24133;-82
2022/10/23 01:29:53;;;;;;;19.03;10.03;;;12.30;99.90;11.70;100227;;;;564012;250;24102;-83
2022/10/23 01:32:22;;;;;;;21.37;10.77;;;12.40;99.90;11.70;100223;;;;563990;250;24107;-82
2022/10/23 01:35:03;;;;;;;14.00;8.83;;;12.40;99.90;11.80;100224;;;;563416;250;24106;-81
2022/10/23 01:37:31;;;;;;;17.90;10.00;;;12.40;99.90;11.80;100224;;;;553954;255;24140;-82
2022/10/23 01:39:59;;;;;;;20.07;11.37;;;12.50;99.90;11.90;100227;;;;566991;251;25193;-82
2022/10/23 01:42:29;;;;;;;22.83;10.43;;;12.50;99.90;11.90;100226;;;;562137;250;24165;-80
2022/10/23 01:45:03;;;;;;;29.97;11.63;;;12.60;99.90;12.00;100232;;;;571840;251;24170;-82
2022/10/23 01:47:31;;;;;;;21.00;9.67;;;12.60;99.90;12.00;100225;;;;565410;251;24129;-81
2022/10/23 01:50:04;;;;;;;26.27;11.70;;;12.60;99.90;11.90;100237;;;;557118;253;24112;-82
2022/10/23 01:52:29;;;;;;;19.53;11.67;;;12.60;99.90;12.00;100230;;;;556700;254;24160;-83
2022/10/23 01:54:57;;;;;;;29.03;11.80;;;12.60;99.90;11.90;100217;;;;565329;252;24142;-79
2022/10/23 01:57:26;;;;;;;26.07;11.80;;;12.60;99.90;11.90;100218;;;;557014;254;24125;-80
2022/10/23 01:59:54;;;;;;;28.27;11.73;;;12.60;99.90;11.90;100219;;;;556618;254;24152;-82
2022/10/23 02:02:22;;;;;;;31.00;11.37;;;12.60;99.90;11.90;100222;;;;556363;254;24114;-81
2022/10/23 02:05:08;;;;;;;22.43;10.70;;;12.60;99.90;11.90;100211;;;;570587;247;24159;-81
2022/10/23 02:07:38;;;;;;;21.20;10.47;;;12.50;99.90;11.80;100215;;;;549798;255;24144;-81
2022/10/23 02:10:10;;;;;;;28.00;11.70;;;12.50;99.90;11.70;100218;;;;552228;255;24152;-82
2022/10/23 02:12:45;;;;;;;24.63;11.67;;;12.30;99.90;11.50;100211;;;;558785;251;24114;-80
2022/10/23 02:15:39;;;;;;;30.70;11.30;;;12.20;99.90;11.40;100212;;;;556431;254;24223;-80
2022/10/23 02:18:35;;;;;;;29.97;11.20;;;12.10;99.90;11.30;100218;;;;556051;254;24131;-81
2022/10/23 02:21:09;;;;;;;20.53;10.80;;;12.00;99.90;11.10;100217;;;;555932;253;24122;-80
2022/10/23 02:23:49;;;;;;;24.43;10.40;;;11.80;99.90;11.00;100220;;;;556297;254;24173;-81
2022/10/23 02:26:25;;;;;;;31.57;12.10;;;11.70;99.90;10.90;100214;;;;556034;254;24160;-82
2022/10/23 02:29:14;;;;;;;23.97;13.23;;;11.60;99.90;10.80;100218;;;;553220;254;24122;-84
2022/10/23 02:31:42;;;;;;;32.53;14.50;;;11.50;99.90;10.80;100230;;;;555611;251;24174;-83
2022/10/23 02:34:10;;;;;;;29.90;13.80;;;11.50;99.90;10.80;100217;;;;572744;250;24217;-81
2022/10/23 02:36:38;;;;;;;31.90;15.67;;;11.50;99.90;10.90;100213;;;;572645;250;24171;-81
2022/10/23 02:39:07;;;;;;;51.60;25.90;;;11.60;99.90;10.90;100213;;;;564114;250;24118;-82
2022/10/23 02:41:47;;;;;;;66.23;34.33;;;11.60;99.90;10.90;100226;;;;572311;250;24121;-83
2022/10/23 02:44:26;;;;;;;67.37;32.10;;;11.50;99.90;10.90;100223;;;;563718;250;24125;-81
2022/10/23 02:47:13;;;;;;;35.20;21.00;;;11.60;99.90;10.90;100226;;;;563976;250;24125;-83
2022/10/23 02:50:05;;;;;;;41.37;21.03;;;11.50;99.90;10.90;100216;;;;563759;250;24114;-81
2022/10/23 02:52:48;;;;;;;40.07;17.33;;;11.60;99.90;10.90;100225;;;;549354;248;24180;-81
2022/10/23 02:55:34;;;;;;;35.97;15.57;;;11.60;99.90;10.90;100221;;;;565268;250;25241;-82
2022/10/23 02:58:11;;;;;;;31.50;14.17;;;11.60;99.90;10.80;100215;;;;564781;249;24131;-82
2022/10/23 03:00:39;;;;;;;26.83;12.00;;;11.50;99.90;10.80;100205;;;;552127;255;24148;-82
2022/10/23 03:03:13;;;;;;;31.62;17.12;;;11.50;99.90;10.80;100209;;;;559285;250;35490;-84
2022/10/23 03:05:41;;;;;;;24.40;12.33;;;11.50;99.90;10.70;100210;;;;552542;255;24148;-81
2022/10/23 03:08:11;;;;;;;27.10;12.77;;;11.40;99.90;10.70;100207;;;;550586;254;24126;-83
2022/10/23 03:10:39;;;;;;;21.57;11.57;;;11.40;99.90;10.60;100210;;;;556427;254;24142;-84
2022/10/23 03:13:04;;;;;;;19.23;11.30;;;11.30;99.90;10.50;100213;;;;556126;253;24188;-81
2022/10/23 03:15:32;;;;;;;28.87;12.07;;;11.30;99.90;10.50;100221;;;;564465;252;24116;-82
2022/10/23 03:18:03;;;;;;;26.30;11.63;;;11.20;99.90;10.40;100224;;;;564310;252;24144;-83
2022/10/23 03:20:28;;;;;;;30.70;11.33;;;11.10;99.90;10.40;100222;;;;554476;254;24160;-80
2022/10/23 03:22:56;;;;;;;26.93;11.80;;;11.10;99.90;10.40;100223;;;;564372;252;24120;-81
2022/10/23 03:25:24;;;;;;;26.07;13.37;;;11.10;99.90;10.50;100223;;;;564294;252;24129;-82
2022/10/23 03:27:52;;;;;;;26.30;11.97;;;11.20;99.90;10.60;100220;;;;564406;252;24118;-82
2022/10/23 03:30:21;;;;;;;21.83;11.37;;;11.40;99.90;10.70;100224;;;;564054;252;24146;-80
2022/10/23 03:32:49;;;;;;;37.72;18.23;;;11.50;99.90;10.80;100217;;;;548111;254;35556;-81
2022/10/23 03:35:18;;;;;;;33.27;13.93;;;11.60;99.90;10.90;100211;;;;564379;252;24168;-81
2022/10/23 03:37:47;;;;;;;30.10;13.00;;;11.60;99.90;10.90;100216;;;;556131;254;24130;-80
2022/10/23 03:40:15;;;;;;;28.70;13.00;;;11.60;99.90;10.90;100220;;;;562398;251;24097;-80
2022/10/23 03:42:44;;;;;;;26.73;11.47;;;11.70;99.90;10.90;100220;;;;572403;250;24120;-79
2022/10/23 03:45:16;;;;;;;32.53;11.87;;;11.70;99.90;11.00;100228;;;;572421;250;24151;-79
2022/10/23 03:47:41;;;;;;;28.63;13.27;;;11.70;99.90;11.00;100227;;;;550080;257;24165;-79
2022/10/23 03:50:12;;;;;;;29.60;11.47;;;11.80;99.90;11.10;100232;;;;569035;251;25206;-81
2022/10/23 03:52:37;;;;;;;22.90;11.53;;;11.80;99.90;11.20;100234;;;;559400;255;24179;-81
2022/10/23 03:55:05;;;;;;;28.23;13.17;;;11.90;99.90;11.20;100237;;;;569726;252;24108;-80
2022/10/23 03:57:32;;;;;;;37.07;15.63;;;11.90;99.90;11.30;100238;;;;561903;250;24199;-82
2022/10/23 04:00:00;;;;;;;39.50;15.30;;;12.00;99.90;11.30;100235;;;;572476;250;24099;-83
2022/10/23 04:02:28;;;;;;;29.17;12.67;;;12.10;99.90;11.40;100241;;;;563922;247;24129;-82
2022/10/23 04:04:56;;;;;;;34.33;15.13;;;12.10;99.90;11.40;100248;;;;573157;249;24101;-79
2022/10/23 04:07:24;;;;;;;31.73;14.30;;;12.20;99.90;11.50;100243;;;;573649;249;24121;-80
2022/10/23 04:09:52;;;;;;;30.50;13.10;;;12.20;99.90;11.50;100255;;;;573041;249;24139;-81
2022/10/23 04:12:24;;;;;;;28.93;13.57;;;12.20;99.90;11.50;100244;;;;572844;249;24160;-83
2022/10/23 04:14:48;;;;;;;24.97;12.63;;;12.30;99.90;11.60;100241;;;;563864;250;24107;-80
2022/10/23 04:17:16;;;;;;;29.37;14.07;;;12.30;99.90;11.60;100244;;;;572607;249;24110;-82
2022/10/23 04:19:44;;;;;;;31.20;13.90;;;12.40;99.90;11.70;100245;;;;572528;247;24120;-79
2022/10/23 04:22:12;;;;;;;35.37;13.73;;;12.40;99.90;11.70;100237;;;;572647;250;24103;-80
2022/10/23 04:24:45;;;;;;;31.20;13.60;;;12.50;99.90;11.80;100238;;;;572402;248;24214;-82
2022/10/23 04:27:08;;;;;;;27.93;12.63;;;12.50;99.90;11.80;100244;;;;564579;250;24115;-78
2022/10/23 04:29:35;;;;;;;29.70;12.63;;;12.50;99.90;11.80;100248;;;;573429;250;24102;-79
2022/10/23 04:32:03;;;;;;;23.03;12.70;;;12.60;99.90;11.80;100257;;;;573049;250;24094;-80
2022/10/23 04:34:31;;;;;;;30.20;14.17;;;12.60;99.90;11.90;100258;;;;564160;250;24103;-80
2022/10/23 04:37:00;;;;;;;30.57;12.83;;;12.70;99.90;11.90;100254;;;;572943;250;24188;-81
2022/10/23 04:39:29;;;;;;;29.37;13.23;;;12.70;99.90;12.00;100246;;;;572690;250;24111;-79
2022/10/23 04:41:57;;;;;;;31.17;14.13;;;12.70;99.90;12.00;100249;;;;572512;250;24103;-81
2022/10/23 04:44:26;;;;;;;35.47;14.67;;;12.80;99.90;12.00;100257;;;;572417;250;24087;-80
2022/10/23 04:46:55;;;;;;;30.30;13.87;;;12.80;99.90;12.00;100263;;;;572449;250;24119;-80
2022/10/23 04:49:23;;;;;;;31.03;14.30;;;12.80;99.90;12.10;100257;;;;572416;250;24095;-82
2022/10/23 04:51:51;;;;;;;26.67;13.60;;;12.80;99.90;12.10;100253;;;;563966;250;24205;-81
2022/10/23 04:54:19;;;;;;;27.27;13.60;;;12.80;99.90;12.10;100257;;;;572431;247;24098;-82
2022/10/23 04:56:48;;;;;;;22.13;12.63;;;12.80;99.90;12.10;100260;;;;572471;250;24114;-82
2022/10/23 04:59:19;;;;;;;27.83;13.10;;;12.80;99.90;12.10;100249;;;;564012;250;24098;-83
2022/10/23 05:01:45;;;;;;;25.87;14.33;;;12.80;99.90;12.10;100249;;;;563660;250;24175;-83
2022/10/23 05:04:14;;;;;;;33.33;13.90;;;12.80;99.90;12.10;100256;;;;552210;255;24145;-81
2022/10/23 05:06:43;;;;;;;27.43;14.03;;;12.80;99.90;12.10;100249;;;;556154;254;24176;-82
2022/10/23 05:09:11;;;;;;;36.33;19.25;;;12.80;99.90;12.10;100254;;;;559547;252;35540;-82
2022/10/23 05:11:39;;;;;;;28.97;13.63;;;12.80;99.90;12.00;100249;;;;564002;248;24169;-82
2022/10/23 05:14:06;;;;;;;34.07;14.33;;;12.80;99.90;12.00;100235;;;;564136;252;24108;-81
2022/10/23 05:16:49;;;;;;;33.83;13.97;;;12.70;99.90;11.90;100236;;;;556680;253;24127;-82
2022/10/23 05:19:20;;;;;;;32.60;13.50;;;12.70;99.90;11.80;100239;;;;556919;253;24106;-81
2022/10/23 05:21:54;;;;;;;24.50;13.23;;;12.40;99.90;11.70;100243;;;;556160;254;25179;-82
2022/10/23 05:24:17;;;;;;;23.87;13.23;;;12.30;99.90;11.60;100254;;;;571058;251;24113;-83
2022/10/23 05:26:46;;;;;;;24.47;12.43;;;12.20;99.90;11.50;100249;;;;572685;250;24106;-82
2022/10/23 05:29:15;;;;;;;26.93;13.40;;;12.20;99.90;11.50;100256;;;;573007;250;24114;-82
2022/10/23 05:31:46;;;;;;;27.47;13.27;;;12.10;99.90;11.40;100251;;;;572681;250;24174;-81
2022/10/23 05:34:12;;;;;;;23.53;11.83;;;12.10;99.90;11.40;100250;;;;552402;255;24146;-80
2022/10/23 05:36:40;;;;;;;28.40;11.33;;;12.10;99.90;11.40;100255;;;;559360;251;24179;-81
2022/10/23 05:39:08;;;;;;;23.10;12.30;;;12.10;99.90;11.50;100261;;;;559955;254;24128;-81
2022/10/23 05:41:37;;;;;;;25.90;13.17;;;12.20;99.90;11.50;100248;;;;564591;252;24134;-81
2022/10/23 05:44:08;;;;;;;25.93;12.90;;;12.20;99.90;11.60;100237;;;;564690;252;24112;-83
2022/10/23 05:46:32;;;;;;;25.07;12.67;;;12.20;99.90;11.60;100248;;;;564414;254;24175;-83
2022/10/23 05:49:00;;;;;;;26.07;12.07;;;12.30;99.90;11.70;100255;;;;564682;252;24114;-84
2022/10/23 05:51:28;;;;;;;27.20;14.73;;;12.30;99.90;11.70;100255;;;;564601;252;24117;-83
2022/10/23 05:53:56;;;;;;;25.07;13.57;;;12.40;99.90;11.70;100260;;;;564374;252;25198;-81
2022/10/23 05:56:24;;;;;;;27.83;13.37;;;12.50;99.90;11.80;100263;;;;564369;252;24110;-83
2022/10/23 05:58:52;;;;;;;25.30;12.53;;;12.50;99.90;11.90;100254;;;;564411;252;24155;-82
2022/10/23 06:01:21;;;;;;;26.30;13.47;;;12.60;99.90;11.90;100253;;;;564363;252;24128;-82
2022/10/23 06:03:48;;;;;;;19.47;12.77;;;12.60;99.90;12.00;100256;;;;564360;252;25157;-82
2022/10/23 06:06:16;;;;;;;24.83;13.37;;;12.70;99.90;12.00;100256;;;;556081;254;24140;-83
2022/10/23 06:08:44;;;;;;;28.43;13.57;;;12.70;99.90;12.10;100257;;;;564425;252;24138;-83
2022/10/23 06:11:12;;;;;;;24.70;13.90;;;12.80;99.90;12.10;100256;;;;564373;252;24099;-83
2022/10/23 06:13:46;;;;;;;28.43;13.20;;;12.80;99.90;12.20;100252;;;;552846;254;24166;-82
2022/10/23 06:16:17;;;;;;;27.43;13.80;;;12.90;99.90;12.20;100248;;;;564100;254;24117;-84
2022/10/23 06:18:45;;;;;;;29.90;15.23;;;12.90;99.90;12.30;100254;;;;561615;251;24122;-83
2022/10/23 06:21:13;;;;;;;26.43;14.60;;;13.00;99.90;12.30;100256;;;;562023;251;24198;-84
2022/10/23 06:23:43;;;;;;;25.43;14.77;;;13.00;99.90;12.40;100253;;;;562016;251;24123;-84
2022/10/23 06:26:08;;;;;;;27.57;14.40;;;13.10;99.90;12.60;100250;;;;553516;257;24147;-83
2022/10/23 06:28:36;;;;;;;25.90;15.60;;;13.20;99.90;12.70;100250;;;;569798;250;24208;-82
2022/10/23 06:31:11;;;;;;;24.87;15.27;;;13.40;99.90;12.90;100250;;;;552751;255;24157;-83
2022/10/23 06:33:35;;;;;;;29.37;15.07;;;13.50;99.90;13.00;100251;;;;551695;256;24137;-83
2022/10/23 06:36:04;;;;;;;32.43;15.87;;;13.80;99.90;13.20;100261;;;;569125;252;24116;-80
2022/10/23 06:38:38;;;;;;;32.27;15.53;;;14.00;99.90;13.30;100253;;;;560736;252;24130;-82
2022/10/23 06:41:01;;;;;;;34.53;14.57;;;14.00;99.90;13.40;100258;;;;552731;255;24160;-79
2022/10/23 06:43:29;;;;;;;26.97;14.97;;;14.30;99.90;13.60;100253;;;;556684;254;24106;-80
2022/10/23 06:46:01;;;;;;;30.70;14.63;;;14.30;99.90;13.60;100255;;;;562784;251;24136;-80
2022/10/23 06:48:29;;;;;;;29.50;15.10;;;14.30;99.90;13.70;100261;;;;562533;251;24123;-81
2022/10/23 06:50:57;;;;;;;35.13;15.03;;;14.40;99.90;13.70;100261;;;;572695;248;24153;-80
2022/10/23 06:53:24;;;;;;;28.57;15.20;;;14.40;99.90;13.70;100260;;;;564197;250;24139;-81
2022/10/23 06:55:52;;;;;;;30.03;15.53;;;14.40;99.90;13.70;100265;;;;564216;250;24121;-81
2022/10/23 06:58:21;;;;;;;27.70;14.40;;;14.40;99.90;13.70;100271;;;;564423;250;24139;-81
2022/10/23 07:00:50;;;;;;;26.80;14.20;;;14.50;99.90;13.70;100272;;;;572774;247;24112;-81
2022/10/23 07:03:18;;;;;;;27.77;15.13;;;14.40;99.90;13.80;100273;;;;572959;250;24105;-81
2022/10/23 07:05:49;;;;;;;28.90;14.63;;;14.50;99.90;13.80;100278;;;;572877;250;24109;-80
2022/10/23 07:08:14;;;;;;;27.83;15.03;;;14.50;99.90;13.90;100275;;;;564118;250;24107;-80
2022/10/23 07:10:41;;;;;;;27.10;14.53;;;14.60;99.90;13.90;100267;;;;564539;250;24092;-81
2022/10/23 07:13:10;;;;;;;26.63;14.13;;;14.70;99.90;14.00;100274;;;;563999;250;24123;-81
2022/10/23 07:15:38;;;;;;;20.87;12.93;;;14.70;99.90;14.10;100279;;;;563895;250;24208;-81
2022/10/23 07:18:06;;;;;;;22.90;13.23;;;14.70;99.90;14.10;100274;;;;572122;250;24106;-82
2022/10/23 07:20:34;;;;;;;23.07;13.60;;;14.80;99.90;14.20;100273;;;;563838;250;24114;-81
2022/10/23 07:23:02;;;;;;;18.67;12.73;;;14.80;99.90;14.20;100273;;;;563761;250;24102;-81
2022/10/23 07:25:30;;;;;;;21.23;12.70;;;14.90;99.90;14.30;100273;;;;572132;250;24098;-81
2022/10/23 07:27:58;;;;;;;15.53;10.97;;;15.00;99.90;14.30;100277;;;;572238;250;24145;-81
2022/10/23 07:30:26;;;;;;;18.47;12.30;;;14.90;99.90;14.30;100277;;;;572129;250;24107;-80
2022/10/23 07:32:54;;;;;;;17.93;12.00;;;15.00;99.90;14.30;100271;;;;572277;248;24122;-82
2022/10/23 07:35:23;;;;;;;14.53;11.33;;;15.10;99.90;14.40;100268;;;;572225;250;24113;-82
2022/10/23 07:37:52;;;;;;;18.30;11.37;;;15.10;99.90;14.50;100272;;;;564189;250;24158;-81
2022/10/23 07:40:20;;;;;;;18.17;12.13;;;15.20;99.90;14.50;100270;;;;573800;249;24116;-81
2022/10/23 07:42:49;;;;;;;18.50;12.00;;;15.30;99.90;14.60;100274;;;;574016;247;24119;-80
2022/10/23 07:45:18;;;;;;;15.30;11.67;;;15.30;99.90;14.70;100274;;;;565670;250;24106;-81
2022/10/23 07:47:46;;;;;;;15.77;12.10;;;15.40;99.90;14.70;100278;;;;553799;255;24223;-82
2022/10/23 07:50:15;;;;;;;17.77;12.20;;;15.40;99.90;14.80;100272;;;;550806;254;24118;-85
2022/10/23 07:52:44;;;;;;;18.37;12.47;;;15.50;99.90;14.90;100265;;;;557210;254;24110;-82
2022/10/23 07:55:12;;;;;;;15.10;11.90;;;15.60;99.90;15.00;100262;;;;565695;252;24149;-82
2022/10/23 07:57:41;;;;;;;15.17;11.63;;;15.70;99.90;15.10;100268;;;;570210;251;24111;-83
2022/10/23 08:00:09;;;;;;;16.63;11.03;;;15.70;99.90;15.20;100264;;;;565033;250;24124;-86
2022/10/23 08:02:37;;;;;;;14.93;11.27;;;15.80;99.90;15.20;100264;;;;564712;250;24143;-84
2022/10/23 08:05:06;;;;;;;16.33;12.10;;;15.90;99.90;15.30;100268;;;;573354;247;24136;-83
2022/10/23 08:07:34;;;;;;;13.70;10.60;;;15.90;99.90;15.30;100264;;;;564780;250;24109;-82
2022/10/23 08:10:02;;;;;;;14.57;10.97;;;16.00;99.90;15.40;100266;;;;573191;250;24129;-81
2022/10/23 08:12:30;;;;;;;14.93;11.50;;;16.10;99.90;15.40;100282;;;;564251;250;24148;-82
2022/10/23 08:14:58;;;;;;;13.00;10.90;;;16.10;99.90;15.50;100275;;;;564006;250;24154;-83
2022/10/23 08:17:26;;;;;;;15.83;11.67;;;16.20;99.90;15.70;100276;;;;564051;250;24095;-81
2022/10/23 08:19:57;;;;;;;15.23;12.00;;;16.30;99.90;16.00;100269;;;;560852;253;24191;-81
2022/10/23 08:22:21;;;;;;;15.47;11.70;;;16.50;99.90;16.70;100277;;;;556438;254;24118;-82
2022/10/23 08:24:55;;;;;;;16.10;11.27;;;17.10;99.90;17.10;100284;;;;564975;252;24105;-84
2022/10/23 08:27:20;;;;;;;13.73;9.40;;;17.60;99.90;17.20;100287;;;;555155;254;24113;-82
2022/10/23 08:29:48;;;;;;;12.60;9.53;;;17.80;99.90;17.30;100288;;;;565015;252;24131;-82
2022/10/23 08:32:16;;;;;;;10.83;9.57;;;18.00;99.90;17.20;100284;;;;564849;252;24155;-86
2022/10/23 08:34:44;;;;;;;11.00;8.97;;;17.90;99.90;17.10;100284;;;;564807;252;24119;-85
2022/10/23 08:37:12;;;;;;;10.00;8.50;;;17.80;99.90;17.00;100279;;;;556560;254;24102;-84
2022/10/23 08:39:40;;;;;;;10.63;8.07;;;17.80;99.90;17.00;100288;;;;564429;254;24129;-85
2022/10/23 08:42:08;;;;;;;8.47;7.40;;;17.70;99.90;16.90;100301;;;;556331;254;24147;-85
2022/10/23 08:44:36;;;;;;;9.90;7.60;;;17.60;99.90;16.90;100296;;;;562264;251;24125;-87
2022/10/23 08:47:13;;;;;;;7.40;6.60;;;17.60;99.90;16.90;100297;;;;551341;255;24188;-82
2022/10/23 08:49:59;;;;;;;7.83;7.03;;;17.60;99.90;17.20;100296;;;;556469;254;24212;-87
2022/10/23 08:52:39;;;;;;;7.83;7.00;;;17.70;99.90;17.60;100299;;;;556904;253;24126;-84
2022/10/23 08:55:28;;;;;;;15.23;7.03;;;18.00;99.90;17.70;100305;;;;562986;251;24117;-85
2022/10/23 08:58:23;;;;;;;7.27;6.53;;;18.30;99.90;17.70;100304;;;;560354;255;24130;-85
2022/10/23 09:00:51;;;;;;;6.67;6.07;;;18.30;99.90;17.60;100305;;;;570641;251;24120;-84
2022/10/23 09:03:19;;;;;;;6.47;4.63;;;18.20;99.90;17.40;100296;;;;563013;251;24168;-85
2022/10/23 09:06:26;;;;;;;6.23;5.30;;;18.10;99.90;17.30;100315;;;;564633;250;24124;-86
2022/10/23 09:09:21;;;;;;;5.90;5.10;;;17.90;99.90;17.20;100318;;;;552385;256;24130;-84
2022/10/23 09:12:07;;;;;;;5.23;4.07;;;17.80;99.90;17.10;100312;;;;550251;252;24133;-85
2022/10/23 09:14:46;;;;;;;7.47;5.13;;;17.80;99.90;17.00;100315;;;;560367;252;24134;-79
2022/10/23 09:17:26;;;;;;;4.73;4.27;;;17.70;99.90;16.80;100330;;;;560258;252;24153;-82
2022/10/23 09:20:18;;;;;;;5.57;3.90;;;17.50;99.90;16.60;100332;;;;560612;252;24138;-86
2022/10/23 09:22:46;;;;;;;5.67;4.43;;;17.30;99.90;16.40;100324;;;;561170;252;24139;-84
2022/10/23 09:25:20;;;;;;;4.53;3.90;;;17.00;99.90;16.30;100335;;;;560896;252;24118;-81
2022/10/23 09:27:51;;;;;;;7.47;4.83;;;16.90;99.90;16.20;100337;;;;555466;252;35520;-81
2022/10/23 09:30:24;;;;;;;6.57;4.30;;;16.80;99.90;16.20;100342;;;;560608;252;24131;-82
2022/10/23 09:32:53;;;;;;;4.33;3.93;;;16.90;99.90;16.30;100332;;;;552193;252;24115;-84
2022/10/23 09:35:27;;;;;;;4.53;3.63;;;16.80;99.90;16.50;100340;;;;568897;252;24101;-82
2022/10/23 09:37:55;;;;;;;3.60;3.30;;;17.00;99.90;16.70;100338;;;;564974;252;24122;-84
2022/10/23 09:40:37;;;;;;;4.27;3.60;;;17.20;99.90;16.80;100337;;;;569503;252;24118;-83
2022/10/23 09:43:14;;;;;;;4.73;3.07;;;17.30;99.90;16.90;100348;;;;568843;252;24134;-84
2022/10/23 09:45:42;;;;;;;3.17;2.87;;;17.50;99.90;17.10;100339;;;;559882;252;24171;-86
2022/10/23 09:48:16;;;;;;;4.63;2.77;;;17.70;99.90;17.30;100346;;;;569028;252;24129;-82
2022/10/23 09:50:50;;;;;;;7.10;2.30;;;17.80;99.90;17.50;100352;;;;560382;252;24171;-85
2022/10/23 09:53:30;;;;;;;2.60;2.10;;;18.10;99.90;17.90;100343;;;;559630;252;24130;-83
2022/10/23 09:55:57;;;;;;;2.07;1.97;;;18.40;99.90;18.10;100339;;;;560308;252;24144;-83
2022/10/23 09:58:36;;;;;;;3.73;2.40;;;18.70;99.90;18.30;100344;;;;560241;252;24164;-81
2022/10/23 10:01:01;;;;;;;2.30;2.10;;;18.90;99.90;18.60;100346;;;;560011;252;24104;-82
2022/10/23 10:03:29;;;;;;;2.40;2.30;;;19.10;99.90;18.70;100344;;;;561428;252;24135;-82
2022/10/23 10:06:00;;;;;;;3.47;2.30;;;19.30;99.90;18.40;100353;;;;569766;252;24100;-82
2022/10/23 10:08:40;;;;;;;2.70;2.13;;;18.90;99.90;18.10;100356;;;;558684;252;24155;-81
2022/10/23 10:11:30;;;;;;;2.23;1.70;;;18.70;99.90;17.90;100350;;;;560251;252;24168;-83
2022/10/23 10:14:19;;;;;;;3.27;2.07;;;18.40;99.90;17.70;100354;;;;560191;252;24136;-81
2022/10/23 10:16:51;;;;;;;5.87;3.57;;;18.20;99.90;17.60;100359;;;;560343;252;24104;-81
2022/10/23 10:19:30;;;;;;;1.90;1.80;;;18.20;99.90;17.40;100359;;;;559915;252;24158;-82
2022/10/23 10:22:26;;;;;;;2.77;1.90;;;18.10;99.90;17.20;100365;;;;560273;252;24113;-81
2022/10/23 10:25:12;;;;;;;2.30;2.10;;;17.80;99.90;16.80;100356;;;;560222;252;24161;-82
2022/10/23 10:27:48;;;;;;;4.13;2.37;;;17.30;99.90;16.70;100354;;;;560479;252;26335;-83
2022/10/23 10:30:19;;;;;;;3.63;2.17;;;17.30;99.90;16.50;100356;;;;559671;252;24172;-81
2022/10/23 10:33:01;;;;;;;10.47;2.57;;;17.10;99.90;16.50;100361;;;;567860;252;24108;-82
2022/10/23 10:36:12;;;;;;;3.62;2.45;;;17.10;99.90;16.70;100363;;;;555331;252;35461;-82
2022/10/23 10:38:52;;;;;;;2.57;2.37;;;17.20;99.90;16.70;100361;;;;560087;252;24135;-81
2022/10/23 10:41:40;;;;;;;4.00;2.10;;;17.20;99.90;16.70;100366;;;;560207;252;24132;-81
2022/10/23 10:44:45;;;;;;;2.00;1.90;;;17.10;99.90;16.50;100380;;;;560256;252;24135;-82
2022/10/23 10:47:17;;;;;;;3.40;2.00;;;16.90;99.90;16.30;100377;;;;560061;252;24111;-81
2022/10/23 10:50:06;;;;;;;1.90;1.80;;;16.90;99.90;16.20;100385;;;;560281;252;24206;-82
2022/10/23 10:52:36;;;;;;;3.37;1.97;;;16.80;99.90;15.90;100379;;;;560272;252;24120;-82
2022/10/23 10:55:20;;;;;;;3.87;1.90;;;16.40;99.90;15.70;100379;;;;560317;252;24152;-83
2022/10/23 10:57:50;;;;;;;5.87;3.73;;;16.30;99.90;15.50;100381;;;;560469;252;24146;-83
2022/10/23 11:00:21;;;;;;;2.43;2.23;;;16.20;99.90;15.30;100374;;;;559884;252;24123;-82
2022/10/23 11:02:55;;;;;;;2.97;2.77;;;15.90;99.90;15.20;100376;;;;560332;252;24159;-81
2022/10/23 11:05:36;;;;;;;3.47;2.63;;;15.70;99.90;15.10;100380;;;;560107;252;24164;-82
2022/10/23 11:08:12;;;;;;;5.40;3.07;;;15.60;99.90;15.00;100376;;;;560200;252;24134;-81
2022/10/23 11:10:39;;;;;;;3.17;2.87;;;15.50;99.90;15.00;100383;;;;568557;250;24212;-83
2022/10/23 11:13:07;;;;;;;7.57;4.33;;;15.50;99.90;15.10;100381;;;;560074;252;24132;-83
2022/10/23 11:15:35;;;;;;;3.97;2.90;;;15.60;99.90;15.10;100375;;;;560816;252;24136;-81
2022/10/23 11:18:03;;;;;;;4.97;3.03;;;15.70;99.90;15.10;100371;;;;560906;252;24188;-81
2022/10/23 11:21:10;;;;;;;3.97;2.90;;;15.70;99.90;15.20;100368;;;;560669;252;24181;-81